Time;durP1;ratioP1;P1;durP2;ratioP2;P2;SDS_P1;SDS_P2;PMS_P1;PMS_P2;Temp;Humidity;BMP_temperature;BMP_pressure;BME280_temperature;BME280_humidity;BME280_pressure;Samples;Min_cycle;Max_cycle;Signal;HPM_P1;HPM_P2
2022/10/18 00:00:58;;;;;;;17.00;9.95;;;;;;;14.49;100.00;102473.06;5004836;28;20833;-71
2022/10/18 00:03:25;;;;;;;17.73;11.25;;;;;;;14.51;100.00;102468.56;5011087;28;20053;-71
2022/10/18 00:05:53;;;;;;;17.60;10.52;;;;;;;14.50;100.00;102464.16;5009429;28;20043;-72
2022/10/18 00:08:20;;;;;;;17.70;10.27;;;;;;;14.49;100.00;102470.41;5007333;28;20121;-71
2022/10/18 00:10:48;;;;;;;16.65;9.63;;;;;;;14.50;100.00;102466.81;5007124;28;20054;-72
2022/10/18 00:13:16;;;;;;;17.65;10.52;;;;;;;14.48;100.00;102459.81;5008676;28;20866;-69
2022/10/18 00:15:53;;;;;;;14.65;10.07;;;;;;;14.46;100.00;102467.81;5019163;28;22325;-72
2022/10/18 00:18:22;;;;;;;18.02;9.45;;;;;;;14.43;100.00;102467.88;5011124;28;20046;-72
2022/10/18 00:20:59;;;;;;;18.05;10.15;;;;;;;14.42;100.00;102461.69;4993469;28;20063;-72
2022/10/18 00:23:28;;;;;;;17.17;10.23;;;;;;;14.40;100.00;102465.25;5005940;28;20034;-72
2022/10/18 00:26:15;;;;;;;19.25;10.48;;;;;;;14.38;100.00;102460.00;5013692;28;20534;-72
2022/10/18 00:28:44;;;;;;;18.92;9.88;;;;;;;14.37;100.00;102455.59;5015327;28;20401;-72
2022/10/18 00:31:15;;;;;;;18.38;9.63;;;;;;;14.35;100.00;102449.44;5013268;28;20073;-72
2022/10/18 00:33:50;;;;;;;19.25;10.13;;;;;;;14.35;100.00;102449.44;5012583;28;20046;-72
2022/10/18 00:36:18;;;;;;;18.13;10.77;;;;;;;14.31;100.00;102445.13;5012215;28;20042;-73
2022/10/18 00:38:47;;;;;;;19.88;10.68;;;;;;;14.30;100.00;102451.31;5009472;28;20050;-72
2022/10/18 00:41:19;;;;;;;23.10;11.20;;;;;;;14.32;100.00;102446.88;5004080;28;20035;-72
2022/10/18 00:44:04;;;;;;;16.38;10.07;;;;;;;14.34;100.00;102446.84;4999829;28;20249;-72
2022/10/18 00:46:38;;;;;;;21.27;10.13;;;;;;;14.33;100.00;102453.03;5018029;28;20046;-72
2022/10/18 00:49:14;;;;;;;17.73;10.18;;;;;;;14.36;100.00;102458.28;5011285;28;20118;-72
2022/10/18 00:51:56;;;;;;;28.35;9.85;;;;;;;14.38;100.00;102453.84;5010957;28;20097;-72
2022/10/18 00:54:26;;;;;;;17.02;9.75;;;;;;;14.36;100.00;102458.28;5008505;28;20046;-72
2022/10/18 00:56:53;;;;;;;19.40;10.02;;;;;;;14.35;100.00;102453.88;5011093;28;20042;-72
2022/10/18 00:59:22;;;;;;;30.15;11.02;;;;;;;14.34;100.00;102452.13;5007242;28;20043;-72
2022/10/18 01:01:49;;;;;;;20.00;10.05;;;;;;;14.32;100.00;102456.59;5011288;28;20046;-71
2022/10/18 01:04:20;;;;;;;22.20;10.48;;;;;;;14.31;100.00;102458.38;5009909;28;20101;-70
2022/10/18 01:07:23;;;;;;;16.92;9.68;;;;;;;14.34;100.00;102457.44;5011018;28;20038;-71
2022/10/18 01:10:24;;;;;;;22.77;10.48;;;;;;;14.36;100.00;102463.59;5006715;28;20054;-70
2022/10/18 01:13:00;;;;;;;20.38;10.60;;;;;;;14.38;100.00;102467.09;5004680;28;20047;-70
2022/10/18 01:15:35;;;;;;;28.70;11.10;;;;;;;14.36;100.00;102469.75;5007509;28;20050;-70
2022/10/18 01:18:14;;;;;;;20.33;10.30;;;;;;;14.35;100.00;102461.84;5009265;28;20047;-70
2022/10/18 01:21:12;;;;;;;20.00;10.02;;;;;;;14.34;100.00;102468.06;5011821;28;20058;-72
2022/10/18 01:24:25;;;;;;;13.00;9.27;;;;;;;14.32;100.00;102467.19;5012478;28;20046;-72
2022/10/18 01:27:14;;;;;;;13.35;9.13;;;;;;;14.33;100.00;102467.19;5002573;28;20479;-72
2022/10/18 01:30:33;;;;;;;16.08;9.00;;;;;;;14.33;100.00;102464.53;5010620;28;20050;-72
2022/10/18 01:33:26;;;;;;;21.23;9.50;;;;;;;14.31;100.00;102465.44;5030274;28;20061;-72
2022/10/18 01:36:15;;;;;;;13.00;9.10;;;;;;;14.32;100.00;102473.41;4998796;28;20034;-72
2022/10/18 01:38:46;;;;;;;20.75;9.55;;;;;;;14.35;100.00;102475.09;4999638;28;20121;-72
2022/10/18 01:41:17;;;;;;;14.18;9.27;;;;;;;14.35;100.00;102465.34;5007717;28;20035;-72
2022/10/18 01:43:49;;;;;;;14.55;9.00;;;;;;;14.37;100.00;102458.25;5016758;28;20120;-72
2022/10/18 01:46:22;;;;;;;15.23;9.95;;;;;;;14.38;100.00;102464.44;5007244;28;20050;-72
2022/10/18 01:48:55;;;;;;;15.90;9.80;;;;;;;14.36;100.00;102467.09;5005187;28;20050;-72
2022/10/18 01:51:26;;;;;;;23.05;9.95;;;;;;;14.35;100.00;102461.84;5008954;28;20050;-72
2022/10/18 01:53:53;;;;;;;13.73;9.40;;;;;;;14.34;100.00;102462.75;5005571;28;20046;-71
2022/10/18 01:57:00;;;;;;;14.18;9.15;;;;;;;14.35;100.00;102460.06;5010577;28;20049;-72
2022/10/18 02:00:05;;;;;;;15.75;9.30;;;;;;;14.35;100.00;102457.41;5008806;28;20042;-71
2022/10/18 02:03:11;;;;;;;17.23;10.13;;;;;;;14.36;100.00;102469.75;5002009;28;20066;-71
2022/10/18 02:05:47;;;;;;;21.60;9.77;;;;;;;14.35;100.00;102461.84;5011096;28;20508;-71
2022/10/18 02:08:46;;;;;;;14.60;9.23;;;;;;;14.35;100.00;102465.34;5002898;28;20103;-71
2022/10/18 02:11:16;;;;;;;15.32;9.02;;;;;;;14.33;100.00;102464.53;5006359;28;20042;-71
2022/10/18 02:13:51;;;;;;;14.38;9.23;;;;;;;14.33;100.00;102461.88;5011688;28;20053;-73
2022/10/18 02:16:27;;;;;;;17.65;9.10;;;;;;;14.33;100.00;102464.53;5007490;28;20046;-73
2022/10/18 02:19:04;;;;;;;13.05;9.23;;;;;;;14.33;100.00;102459.22;5010048;28;20034;-73
2022/10/18 02:21:32;;;;;;;17.55;9.65;;;;;;;14.33;100.00;102466.31;5010173;28;20553;-73
2022/10/18 02:24:02;;;;;;;20.95;10.20;;;;;;;14.34;100.00;102468.06;5010930;28;20093;-73
2022/10/18 02:26:30;;;;;;;20.70;10.18;;;;;;;14.34;100.00;102468.94;5001613;28;20047;-73
2022/10/18 02:28:57;;;;;;;17.98;9.43;;;;;;;14.32;100.00;102457.47;5002410;28;20042;-73
2022/10/18 02:31:31;;;;;;;18.88;10.23;;;;;;;14.32;100.00;102467.19;5012302;28;20046;-73
2022/10/18 02:34:17;;;;;;;14.85;9.55;;;;;;;14.26;100.00;102463.78;5010437;28;20046;-73
2022/10/18 02:36:58;;;;;;;18.38;9.75;;;;;;;14.23;100.00;102466.50;5004480;28;20042;-73
2022/10/18 02:39:42;;;;;;;22.50;9.70;;;;;;;14.24;100.00;102464.72;5009814;28;20039;-73
2022/10/18 02:42:10;;;;;;;22.42;10.55;;;;;;;14.21;100.00;102462.13;5010700;28;20120;-73
2022/10/18 02:44:38;;;;;;;18.33;9.85;;;;;;;14.20;100.00;102468.31;5009597;28;20042;-72
2022/10/18 02:47:08;;;;;;;19.02;10.65;;;;;;;14.19;100.00;102470.13;5013861;28;20501;-73
2022/10/18 02:49:35;;;;;;;15.20;9.80;;;;;;;14.20;100.00;102474.50;5007606;28;20042;-71
2022/10/18 02:52:02;;;;;;;19.13;9.20;;;;;;;14.21;100.00;102460.34;5002356;28;20124;-71
2022/10/18 02:54:30;;;;;;;19.10;9.00;;;;;;;14.23;100.00;102465.63;5001635;28;20536;-71
2022/10/18 02:56:57;;;;;;;15.43;8.90;;;;;;;14.25;100.00;102471.75;5014893;28;20532;-69
2022/10/18 02:59:24;;;;;;;17.30;9.18;;;;;;;14.24;100.00;102475.34;5010118;28;20050;-72
2022/10/18 03:01:52;;;;;;;19.17;9.50;;;;;;;14.24;100.00;102480.63;5009788;28;20057;-72
2022/10/18 03:04:19;;;;;;;13.20;9.38;;;;;;;14.23;100.00;102470.94;5006859;28;20038;-72
2022/10/18 03:06:47;;;;;;;21.98;9.93;;;;;;;14.21;100.00;102470.09;5020139;28;20042;-72
2022/10/18 03:09:14;;;;;;;15.30;8.55;;;;;;;14.20;100.00;102470.97;5007138;28;20461;-71
2022/10/18 03:11:41;;;;;;;19.75;9.35;;;;;;;14.19;100.00;102475.44;5007736;28;20101;-71
2022/10/18 03:14:08;;;;;;;15.98;9.07;;;;;;;14.18;100.00;102481.63;5002433;28;20045;-71
2022/10/18 03:16:35;;;;;;;15.30;10.45;;;;;;;14.18;100.00;102476.31;5006368;28;20104;-71
2022/10/18 03:19:02;;;;;;;17.90;10.32;;;;;;;14.17;100.00;102469.28;5008835;28;20042;-71
2022/10/18 03:21:29;;;;;;;18.25;11.10;;;;;;;14.18;100.00;102467.47;5022196;28;20054;-72
2022/10/18 03:23:58;;;;;;;20.20;10.70;;;;;;;14.18;100.00;102472.78;5004165;28;20492;-72
2022/10/18 03:26:25;;;;;;;20.58;11.05;;;;;;;14.16;100.00;102474.59;4999073;28;20043;-72
2022/10/18 03:28:52;;;;;;;15.18;10.38;;;;;;;14.14;100.00;102470.19;5011036;28;20051;-71
2022/10/18 03:31:20;;;;;;;14.10;9.73;;;;;;;14.14;100.00;102467.53;5011359;28;20098;-72
2022/10/18 03:33:47;;;;;;;14.10;10.02;;;;;;;14.12;100.00;102476.44;5001841;28;20050;-72
2022/10/18 03:36:14;;;;;;;15.05;9.00;;;;;;;14.11;100.00;102469.38;5005151;28;20047;-71
2022/10/18 03:38:42;;;;;;;16.40;10.40;;;;;;;14.13;100.00;102475.53;5006068;28;20035;-71
2022/10/18 03:41:09;;;;;;;35.95;10.95;;;;;;;14.11;100.00;102480.88;5009788;28;20109;-71
2022/10/18 03:43:36;;;;;;;17.60;11.02;;;;;;;14.10;100.00;102481.78;5008549;28;20041;-71
2022/10/18 03:46:03;;;;;;;16.73;10.60;;;;;;;14.11;100.00;102479.97;5012391;28;20129;-71
2022/10/18 03:48:31;;;;;;;14.98;10.45;;;;;;;14.11;100.00;102478.22;5008812;28;20057;-71
2022/10/18 03:50:58;;;;;;;18.58;11.10;;;;;;;14.12;100.00;102479.06;5003951;28;20039;-72
2022/10/18 03:53:25;;;;;;;18.80;12.23;;;;;;;14.13;100.00;102489.69;5012887;28;20077;-71
2022/10/18 03:55:54;;;;;;;15.07;10.23;;;;;;;14.12;100.00;102481.72;5007381;28;20051;-72
2022/10/18 03:58:23;;;;;;;13.80;10.75;;;;;;;14.11;100.00;102486.19;5012288;28;20105;-72
2022/10/18 04:00:54;;;;;;;13.43;9.95;;;;;;;14.11;100.00;102488.81;5010995;28;20046;-71
2022/10/18 04:03:22;;;;;;;14.80;9.90;;;;;;;14.12;100.00;102489.69;5012595;28;20046;-71
2022/10/18 04:05:49;;;;;;;16.08;10.68;;;;;;;14.10;100.00;102476.47;5013537;28;20046;-71
2022/10/18 04:08:17;;;;;;;15.45;10.65;;;;;;;14.09;100.00;102473.84;5009962;28;20057;-72
2022/10/18 04:10:45;;;;;;;16.63;11.48;;;;;;;14.07;100.00;102473.88;5012455;28;20186;-72
2022/10/18 04:13:12;;;;;;;16.60;10.55;;;;;;;14.07;100.00;102473.88;5013099;28;20049;-72
2022/10/18 04:15:40;;;;;;;13.52;10.20;;;;;;;14.09;100.00;102477.38;5011457;28;20567;-71
2022/10/18 04:18:07;;;;;;;14.48;11.05;;;;;;;14.09;100.00;102487.97;5012805;28;20058;-72
2022/10/18 04:20:34;;;;;;;15.50;10.50;;;;;;;14.10;100.00;102483.53;5001802;28;20516;-72
2022/10/18 04:23:01;;;;;;;18.55;11.43;;;;;;;14.10;100.00;102480.88;5011747;28;20054;-72
2022/10/18 04:25:29;;;;;;;17.67;11.18;;;;;;;14.11;100.00;102479.97;5018480;28;20069;-72
2022/10/18 04:27:56;;;;;;;17.30;10.52;;;;;;;14.10;100.00;102464.97;5012760;28;20097;-72
2022/10/18 04:30:23;;;;;;;25.83;13.13;;;;;;;14.11;100.00;102474.69;5011795;28;20126;-71
2022/10/18 04:32:50;;;;;;;19.80;12.93;;;;;;;14.11;100.00;102478.22;5008621;28;20390;-71
2022/10/18 04:35:18;;;;;;;26.95;13.95;;;;;;;14.11;100.00;102469.38;5009552;28;20054;-71
2022/10/18 04:37:46;;;;;;;40.28;16.05;;;;;;;14.11;100.00;102475.56;5015685;28;20861;-70
2022/10/18 04:40:13;;;;;;;136.90;21.10;;;;;;;14.11;100.00;102470.25;5019393;28;20112;-71
2022/10/18 04:42:40;;;;;;;137.15;23.15;;;;;;;14.14;100.00;102474.63;5016504;28;20624;-71
2022/10/18 04:45:08;;;;;;;238.32;27.63;;;;;;;14.16;100.00;102478.13;5011478;28;20050;-70
2022/10/18 04:47:35;;;;;;;191.60;24.67;;;;;;;14.19;100.00;102479.84;5011834;28;20053;-70
2022/10/18 04:50:04;;;;;;;212.63;27.33;;;;;;;14.21;100.00;102478.91;5011479;28;20522;-70
2022/10/18 04:52:31;;;;;;;229.80;26.73;;;;;;;14.23;100.00;102484.19;5014694;28;20061;-71
2022/10/18 04:54:58;;;;;;;248.23;27.20;;;;;;;14.23;100.00;102487.72;5014778;28;20039;-72
2022/10/18 04:57:25;;;;;;;109.53;22.55;;;;;;;14.25;100.00;102485.00;5011599;28;20042;-71
2022/10/18 04:59:52;;;;;;;276.75;27.95;;;;;;;14.27;100.00;102484.09;5011976;28;20462;-72
2022/10/18 05:02:19;;;;;;;128.55;24.70;;;;;;;14.28;100.00;102483.19;5006922;28;20047;-71
2022/10/18 05:04:46;;;;;;;97.18;20.35;;;;;;;14.28;100.00;102483.19;5008039;28;20042;-71
2022/10/18 05:07:13;;;;;;;222.68;26.13;;;;;;;14.30;100.00;102485.81;5016065;28;20038;-72
2022/10/18 05:09:40;;;;;;;235.82;29.70;;;;;;;14.30;100.00;102477.84;5013249;28;20045;-72
2022/10/18 05:12:08;;;;;;;500.98;41.20;;;;;;;14.30;100.00;102483.16;4993240;28;20050;-72
2022/10/18 05:14:35;;;;;;;581.67;46.35;;;;;;;14.31;100.00;102484.91;5002820;28;20555;-72
2022/10/18 05:17:02;;;;;;;423.35;36.67;;;;;;;14.30;100.00;102480.50;5012349;28;20460;-72
2022/10/18 05:19:29;;;;;;;171.55;25.42;;;;;;;14.31;100.00;102476.06;5010506;28;20054;-71
2022/10/18 05:21:56;;;;;;;317.70;30.20;;;;;;;14.33;100.00;102476.91;5011052;28;20425;-71
2022/10/18 05:24:23;;;;;;;400.73;35.60;;;;;;;14.33;100.00;102485.75;5010840;28;20057;-70
2022/10/18 05:26:53;;;;;;;229.77;28.48;;;;;;;14.30;100.00;102488.47;5012569;28;20038;-70
2022/10/18 05:29:21;;;;;;;267.80;30.85;;;;;;;14.31;100.00;102494.63;5013291;28;20050;-70
2022/10/18 05:31:49;;;;;;;276.88;29.45;;;;;;;14.28;100.00;102491.16;5023742;28;20104;-70
2022/10/18 05:34:17;;;;;;;409.73;34.55;;;;;;;14.25;100.00;102488.56;5011151;28;20105;-70
2022/10/18 05:36:44;;;;;;;229.70;28.98;;;;;;;14.22;100.00;102485.09;5011500;28;20058;-70
2022/10/18 05:39:11;;;;;;;451.15;37.45;;;;;;;14.21;100.00;102488.66;5030320;28;20045;-70
2022/10/18 05:41:38;;;;;;;390.55;34.67;;;;;;;14.18;100.00;102492.25;5017510;28;20825;-71
2022/10/18 05:44:06;;;;;;;305.45;30.60;;;;;;;14.15;100.00;102484.34;5010544;28;20125;-70
2022/10/18 05:46:33;;;;;;;190.27;26.35;;;;;;;14.13;100.00;102491.44;5011811;28;20049;-70
2022/10/18 05:49:00;;;;;;;270.17;28.30;;;;;;;14.12;100.00;102498.53;5014183;28;20043;-70
2022/10/18 05:51:27;;;;;;;214.43;25.02;;;;;;;14.11;100.00;102498.53;5008458;28;20179;-70
2022/10/18 05:53:54;;;;;;;211.70;25.17;;;;;;;14.09;100.00;102506.53;5010622;28;20049;-70
2022/10/18 05:56:21;;;;;;;199.85;25.33;;;;;;;14.07;100.00;102512.78;5016707;28;20046;-70
2022/10/18 05:58:50;;;;;;;189.52;24.27;;;;;;;14.05;100.00;102518.09;5010045;28;20047;-71
2022/10/18 06:01:18;;;;;;;196.55;23.17;;;;;;;14.04;100.00;102515.47;5016074;28;20039;-70
2022/10/18 06:03:46;;;;;;;131.20;22.98;;;;;;;14.00;100.00;102524.38;5011359;28;20488;-71
2022/10/18 06:06:15;;;;;;;175.85;23.13;;;;;;;13.97;100.00;102518.25;5014092;28;20054;-71
2022/10/18 06:08:43;;;;;;;192.68;22.75;;;;;;;13.96;100.00;102527.09;5011140;28;20105;-71
2022/10/18 06:11:15;;;;;;;230.25;26.15;;;;;;;13.96;100.00;102535.06;5012649;28;20046;-71
2022/10/18 06:13:45;;;;;;;195.57;25.90;;;;;;;13.95;100.00;102527.13;5010893;28;20047;-71
2022/10/18 06:16:17;;;;;;;231.57;27.70;;;;;;;13.97;100.00;102539.47;5000762;28;20428;-70
2022/10/18 06:18:51;;;;;;;306.60;31.00;;;;;;;14.00;100.00;102538.53;5011901;28;20097;-70
2022/10/18 06:21:19;;;;;;;476.77;40.45;;;;;;;14.00;100.00;102537.63;5011742;28;20058;-70
2022/10/18 06:23:54;;;;;;;241.25;29.33;;;;;;;14.02;100.00;102538.50;5011702;28;20049;-71
2022/10/18 06:26:22;;;;;;;330.83;30.30;;;;;;;14.01;100.00;102545.59;5011732;28;20138;-70
2022/10/18 06:28:49;;;;;;;163.60;24.92;;;;;;;14.02;100.00;102538.50;5011775;28;20065;-71
2022/10/18 06:31:17;;;;;;;210.32;25.02;;;;;;;14.04;100.00;102536.69;5011839;28;20046;-70
2022/10/18 06:33:47;;;;;;;499.48;42.13;;;;;;;14.06;100.00;102530.44;5011573;28;20042;-71
2022/10/18 06:36:21;;;;;;;198.80;26.35;;;;;;;14.07;100.00;102534.00;5011483;28;20053;-70
2022/10/18 06:38:49;;;;;;;205.82;25.88;;;;;;;14.09;100.00;102542.81;5011864;28;20042;-70
2022/10/18 06:41:18;;;;;;;327.55;31.02;;;;;;;14.10;100.00;102547.19;5010862;28;20046;-70
2022/10/18 06:43:50;;;;;;;179.20;24.65;;;;;;;14.10;100.00;102542.75;5011926;28;20119;-70
2022/10/18 06:46:18;;;;;;;386.33;34.28;;;;;;;14.09;100.00;102546.31;5015175;28;20038;-70
2022/10/18 06:48:46;;;;;;;327.70;30.58;;;;;;;14.08;100.00;102565.78;5012877;28;20043;-70
2022/10/18 06:51:14;;;;;;;385.75;33.75;;;;;;;14.07;100.00;102569.34;5014303;28;20045;-69
2022/10/18 06:53:41;;;;;;;298.00;29.65;;;;;;;14.08;100.00;102572.88;5012400;28;20058;-70
2022/10/18 06:56:24;;;;;;;314.13;30.33;;;;;;;14.08;100.00;102579.03;5010115;28;20041;-70
2022/10/18 06:58:53;;;;;;;112.80;21.05;;;;;;;14.10;100.00;102577.25;5009673;28;20871;-70
2022/10/18 07:01:20;;;;;;;148.73;23.55;;;;;;;14.11;100.00;102580.75;5020163;28;20038;-70
2022/10/18 07:03:52;;;;;;;176.68;24.02;;;;;;;14.10;100.00;102590.50;5016652;28;20509;-70
2022/10/18 07:06:21;;;;;;;279.83;28.52;;;;;;;14.11;100.00;102591.38;5025268;28;20569;-69
2022/10/18 07:08:51;;;;;;;258.48;26.55;;;;;;;14.12;100.00;102598.41;5011342;28;20041;-70
2022/10/18 07:11:23;;;;;;;170.20;23.17;;;;;;;14.11;100.00;102604.63;5021793;28;20042;-70
2022/10/18 07:13:53;;;;;;;108.43;20.25;;;;;;;14.08;100.00;102608.22;5010134;28;20117;-70
2022/10/18 07:16:20;;;;;;;77.47;21.73;;;;;;;14.07;100.00;102610.91;5010826;28;20050;-69
2022/10/18 07:18:50;;;;;;;63.05;19.70;;;;;;;14.05;100.00;102610.03;5011125;28;20038;-70
2022/10/18 07:21:21;;;;;;;97.90;21.52;;;;;;;14.07;100.00;102605.59;5010622;28;20750;-69
2022/10/18 07:23:50;;;;;;;71.75;20.02;;;;;;;14.11;100.00;102605.50;5010735;28;20117;-69
2022/10/18 07:26:24;;;;;;;61.55;19.75;;;;;;;14.20;100.00;102614.22;5011382;28;20492;-70
2022/10/18 07:29:00;;;;;;;103.00;23.42;;;;;;;14.23;100.00;102620.34;5011013;28;20050;-70
2022/10/18 07:31:28;;;;;;;57.13;20.00;;;;;;;14.27;100.00;102619.38;5011002;28;20052;-70
2022/10/18 07:33:56;;;;;;;55.58;20.98;;;;;;;14.33;100.00;102621.06;5011140;28;20523;-70
2022/10/18 07:36:24;;;;;;;44.13;19.88;;;;;;;14.36;100.00;102633.38;5010703;28;20591;-69
2022/10/18 07:38:52;;;;;;;44.75;18.35;;;;;;;14.35;100.00;102642.25;5010352;28;20085;-69
2022/10/18 07:41:20;;;;;;;42.13;18.45;;;;;;;14.28;100.00;102644.13;5011434;28;20151;-69
2022/10/18 07:43:50;;;;;;;32.03;16.60;;;;;;;14.27;100.00;102648.56;5010446;28;20050;-69
2022/10/18 07:46:20;;;;;;;36.60;17.23;;;;;;;14.28;100.00;102645.00;5010785;28;20042;-72
2022/10/18 07:48:49;;;;;;;49.45;17.50;;;;;;;14.32;100.00;102656.44;5010947;28;20050;-71
2022/10/18 07:51:19;;;;;;;37.13;18.05;;;;;;;14.40;100.00;102657.19;5011338;28;20077;-71
2022/10/18 07:53:47;;;;;;;37.50;17.80;;;;;;;14.47;100.00;102657.94;5010602;28;20064;-71
2022/10/18 07:56:19;;;;;;;41.20;18.48;;;;;;;14.48;100.00;102649.09;5010383;28;20043;-71
2022/10/18 07:58:50;;;;;;;37.72;17.67;;;;;;;14.49;100.00;102665.88;5010450;28;20128;-71
2022/10/18 08:01:20;;;;;;;35.75;17.58;;;;;;;14.50;100.00;102671.16;5011057;28;20093;-71
2022/10/18 08:03:48;;;;;;;35.67;17.02;;;;;;;14.47;100.00;102670.34;5010836;28;20958;-71
2022/10/18 08:06:18;;;;;;;32.13;16.40;;;;;;;14.42;100.00;102671.31;5010656;28;20038;-71
2022/10/18 08:08:45;;;;;;;35.17;16.10;;;;;;;14.38;100.00;102672.25;5010582;28;20043;-70
2022/10/18 08:11:20;;;;;;;35.35;17.83;;;;;;;14.37;100.00;102682.91;5010716;28;20560;-71
2022/10/18 08:13:47;;;;;;;;;;;;;;;14.31;100.00;102688.28;5011319;28;20101;-71
2022/10/18 08:16:19;;;;;;;34.53;16.65;;;;;;;14.25;100.00;102689.25;5011688;28;19932;-69
2022/10/18 08:18:47;;;;;;;39.85;17.42;;;;;;;14.25;100.00;102692.81;5013714;28;20046;-71
2022/10/18 08:21:16;;;;;;;33.38;16.52;;;;;;;14.25;100.00;102691.91;5013589;28;20492;-71
2022/10/18 08:23:44;;;;;;;33.58;16.02;;;;;;;14.22;100.00;102700.81;5029209;28;20054;-71
2022/10/18 08:26:18;;;;;;;38.63;17.67;;;;;;;14.29;100.00;102693.63;5026089;28;20030;-70
2022/10/18 08:28:46;;;;;;;37.03;17.98;;;;;;;14.42;100.00;102689.88;5014734;28;20654;-71
2022/10/18 08:31:26;;;;;;;36.80;17.10;;;;;;;14.57;100.00;102695.81;5011803;28;20077;-70
2022/10/18 08:33:56;;;;;;;34.80;17.13;;;;;;;14.66;100.00;102700.94;5013679;28;20046;-71
2022/10/18 08:36:24;;;;;;;33.60;17.05;;;;;;;14.88;100.00;102705.91;5023853;28;20046;-71
2022/10/18 08:38:51;;;;;;;34.85;16.20;;;;;;;15.10;100.00;102701.06;5013108;28;21063;-69
2022/10/18 08:42:28;;;;;;;34.28;15.35;;;;;;;15.35;100.00;102706.75;5014995;28;20512;-69
2022/10/18 08:44:56;;;;;;;28.25;15.25;;;;;;;15.52;100.00;102711.69;5017551;28;20141;-69
2022/10/18 08:47:40;;;;;;;33.50;15.38;;;;;;;15.64;98.34;102704.38;4993942;28;20035;-69
2022/10/18 08:50:22;;;;;;;29.63;14.65;;;;;;;15.68;97.68;102706.91;4999610;28;20093;-69
2022/10/18 08:52:52;;;;;;;22.88;12.35;;;;;;;15.71;95.87;102713.09;5013365;28;20047;-69
2022/10/18 08:55:38;;;;;;;22.88;11.75;;;;;;;15.60;94.52;102708.00;5012670;28;20049;-69
2022/10/18 08:58:32;;;;;;;24.73;12.50;;;;;;;15.50;94.64;102705.56;5021655;28;20073;-69
2022/10/18 09:01:55;;;;;;;21.40;13.00;;;;;;;15.45;95.53;102714.53;5003083;28;20059;-69
2022/10/18 09:05:03;;;;;;;24.42;12.18;;;;;;;15.50;95.45;102708.22;5013419;28;20047;-69
2022/10/18 09:07:58;;;;;;;25.33;12.65;;;;;;;15.57;95.88;102702.75;5009651;28;20452;-69
2022/10/18 09:10:57;;;;;;;20.48;12.40;;;;;;;15.53;96.38;102708.13;5013105;28;20039;-69
2022/10/18 09:14:02;;;;;;;20.20;11.15;;;;;;;15.62;95.80;102714.16;5018436;28;20054;-69
2022/10/18 09:16:50;;;;;;;23.52;11.00;;;;;;;15.72;94.65;102709.53;5006681;28;20050;-69
2022/10/18 09:19:43;;;;;;;20.10;10.70;;;;;;;15.81;95.32;102707.53;5012820;28;20035;-69
2022/10/18 09:22:19;;;;;;;19.20;10.55;;;;;;;15.93;94.61;102725.03;5012937;28;20062;-69
2022/10/18 09:25:13;;;;;;;19.00;10.02;;;;;;;16.03;94.75;102730.13;5022308;28;20038;-69
2022/10/18 09:28:06;;;;;;;16.27;9.50;;;;;;;16.11;93.55;102714.84;5021858;28;20069;-69
2022/10/18 09:31:16;;;;;;;17.90;9.18;;;;;;;16.20;93.57;102714.63;5012880;28;20046;-70
2022/10/18 09:33:57;;;;;;;14.90;8.10;;;;;;;16.24;92.85;102718.97;5022329;28;20046;-69
2022/10/18 09:36:34;;;;;;;17.42;7.85;;;;;;;16.28;92.39;102717.13;4998222;28;20046;-69
2022/10/18 09:39:14;;;;;;;18.63;7.70;;;;;;;16.32;91.72;102721.47;4996354;28;20089;-69
2022/10/18 09:41:58;;;;;;;13.68;6.07;;;;;;;16.37;91.44;102724.88;5018362;28;20041;-69
2022/10/18 09:44:37;;;;;;;14.13;7.20;;;;;;;16.41;90.69;102717.69;5017196;28;20069;-69
2022/10/18 09:47:32;;;;;;;13.88;7.25;;;;;;;16.49;85.99;102712.16;5032968;28;20038;-69
2022/10/18 09:50:23;;;;;;;15.55;8.27;;;;;;;16.51;85.44;102721.84;5022612;28;20121;-69
2022/10/18 09:53:11;;;;;;;13.88;6.68;;;;;;;16.54;85.91;102719.13;5004715;28;20045;-70
2022/10/18 09:56:17;;;;;;;16.58;6.85;;;;;;;16.60;88.22;102704.78;5022066;28;20042;-70
2022/10/18 09:58:48;;;;;;;17.80;6.63;;;;;;;16.70;89.23;102719.59;5017076;28;20062;-70
2022/10/18 10:01:22;;;;;;;12.05;6.10;;;;;;;16.79;87.65;102717.59;5013880;28;20182;-70
2022/10/18 10:03:51;;;;;;;11.55;5.68;;;;;;;16.83;86.02;102721.94;5013826;28;20116;-70
2022/10/18 10:06:26;;;;;;;11.77;4.68;;;;;;;16.89;84.23;102724.44;5011296;28;20049;-70
2022/10/18 10:09:17;;;;;;;13.52;4.82;;;;;;;16.94;84.49;102730.53;5012435;28;20490;-70
2022/10/18 10:11:47;;;;;;;8.35;3.40;;;;;;;17.04;82.30;102732.03;5018333;28;20052;-70
2022/10/18 10:14:25;;;;;;;10.57;3.80;;;;;;;17.06;79.76;102719.53;5020592;28;20050;-70
2022/10/18 10:16:57;;;;;;;11.52;3.00;;;;;;;17.15;75.83;102729.06;5011892;28;21005;-70
2022/10/18 10:19:31;;;;;;;9.77;2.60;;;;;;;17.17;78.10;102718.38;5013990;28;20081;-70
2022/10/18 10:22:09;;;;;;;6.03;2.22;;;;;;;17.23;79.26;102724.41;5015918;28;20050;-70
2022/10/18 10:24:50;;;;;;;7.75;2.40;;;;;;;17.32;74.32;102714.38;5029157;28;20100;-69
2022/10/18 10:27:34;;;;;;;8.95;2.85;;;;;;;17.36;76.51;102716.91;5029782;28;20966;-70
2022/10/18 10:30:21;;;;;;;9.93;2.40;;;;;;;17.44;74.33;102721.16;5008822;28;20389;-69
2022/10/18 10:32:50;;;;;;;8.38;1.75;;;;;;;17.54;70.95;102733.31;5012066;28;20460;-69
2022/10/18 10:35:35;;;;;;;5.32;1.52;;;;;;;17.54;69.19;102730.63;5014004;28;20045;-70
2022/10/18 10:38:28;;;;;;;7.65;1.63;;;;;;;17.60;68.63;102738.44;5007354;28;20057;-69
2022/10/18 10:40:57;;;;;;;6.18;1.50;;;;;;;17.67;68.69;102733.81;5027286;28;20070;-69
2022/10/18 10:43:37;;;;;;;5.88;1.50;;;;;;;17.77;66.47;102739.72;5017438;28;20045;-70
2022/10/18 10:46:25;;;;;;;5.30;1.45;;;;;;;17.78;67.91;102737.03;5017478;28;20777;-70
2022/10/18 10:48:57;;;;;;;5.03;1.25;;;;;;;17.82;64.77;102736.00;5006241;28;20046;-69
2022/10/18 10:51:52;;;;;;;8.32;1.40;;;;;;;17.85;68.59;102740.38;5006413;28;20121;-69
2022/10/18 10:54:38;;;;;;;5.22;1.70;;;;;;;17.95;69.34;102740.94;5014328;28;20042;-70
2022/10/18 10:57:20;;;;;;;6.10;1.50;;;;;;;18.05;70.87;102742.44;5013985;28;20045;-69
2022/10/18 10:59:52;;;;;;;8.60;1.42;;;;;;;18.15;70.79;102753.72;5009123;28;20038;-70
2022/10/18 11:02:35;;;;;;;14.32;1.67;;;;;;;18.26;71.81;102758.69;5010892;28;20087;-70
2022/10/18 11:05:28;;;;;;;13.38;1.63;;;;;;;18.36;71.14;102751.25;5011663;28;20046;-69
2022/10/18 11:08:03;;;;;;;8.13;1.35;;;;;;;18.43;71.05;102758.13;5016087;28;20060;-70
2022/10/18 11:10:48;;;;;;;5.50;1.20;;;;;;;18.47;69.02;102752.63;5025522;28;20050;-69
2022/10/18 11:13:48;;;;;;;5.47;1.40;;;;;;;18.50;65.65;102745.47;5012753;28;20046;-70
2022/10/18 11:16:55;;;;;;;4.90;1.10;;;;;;;18.49;68.79;102746.38;5010293;28;20468;-69
2022/10/18 11:19:39;;;;;;;7.80;2.08;;;;;;;18.57;68.19;102746.97;5011210;28;20034;-69
2022/10/18 11:22:17;;;;;;;10.82;1.90;;;;;;;18.61;68.33;102752.16;5026828;28;20122;-70
2022/10/18 11:24:44;;;;;;;10.82;2.95;;;;;;;18.69;67.91;102756.38;5015604;28;20039;-70
2022/10/18 11:27:28;;;;;;;8.57;2.40;;;;;;;18.75;68.74;102742.81;5010728;28;20529;-70
2022/10/18 11:30:43;;;;;;;12.10;2.17;;;;;;;18.84;69.26;102741.59;5012053;28;20043;-70
2022/10/18 11:33:35;;;;;;;11.18;1.70;;;;;;;18.91;68.79;102737.81;5011649;28;20054;-69
2022/10/18 11:36:52;;;;;;;14.00;1.92;;;;;;;18.96;67.85;102745.69;5011517;28;20038;-70
2022/10/18 11:39:48;;;;;;;8.70;1.65;;;;;;;19.02;65.50;102743.69;5008447;28;20049;-70